Westrac — WTH4325 — position and weather

sailwx.info

Track history (hours):
 
Tides and Currents Weather Stations Pressure Air Temp Water Temp Dewpoint Dewpoint Depression Visibility Wind Speed Wind Dir Waves Ship Positions

Westrac

Owner: WESTERN TOWBOAT CO, SEATTLE, WA. More information available from US FCC via Universal Licensing System and Coast Guard Vessel Documentation Center.

Last reported at 2017-May-23 17:00 UTC. Time now 2017-May-23 17:03 UTC.
Position N 47°38' W 122°23'.

Length 23 m; draft 5 m.

Type: Tug. MMSI: 366993010.

Date/timePositionNaut miles runAvg speedWind from/ knotsBaromVisibWave heightAir tempDewpointWater temp
2017-May-23 17:00N 47°38' W 122°23'3 5.4
2017-May-23 16:30N 47°35' W 122°21'0 0.6
2017-May-23 16:01N 47°36' W 122°21'1 2.6
2017-May-23 15:30N 47°34' W 122°21'1 1.7
2017-May-23 15:00N 47°33' W 122°21'1 1.3
2017-May-23 14:30N 47°34' W 122°21'0 0.0
2017-May-23 13:30N 47°34' W 122°21'0 0.0
2017-May-23 01:16N 47°34' W 122°21'1 4.8
2017-May-23 01:00N 47°33' W 122°20'1 2.9
2017-May-23 00:30N 47°34' W 122°21'1 2.2
2017-May-23 00:00N 47°35' W 122°21'0 0.6
2017-May-22 23:30N 47°35' W 122°21'1 2.2
2017-May-22 23:00N 47°34' W 122°21'0 0.0
2017-May-22 22:30N 47°34' W 122°21'0 0.0
2017-May-22 22:00N 47°34' W 122°21'0 0.0
2017-May-22 21:30N 47°34' W 122°21'0 0.0
2017-May-22 21:00N 47°34' W 122°21'0 0.0
2017-May-22 20:30N 47°34' W 122°21'2 3.1
2017-May-22 20:00N 47°35' W 122°22'1 2.7
2017-May-22 19:30N 47°34' W 122°21'2 3.1
2017-May-22 19:00N 47°33' W 122°20'0 0.0
2017-May-22 18:30N 47°33' W 122°20'0 0.2
2017-May-22 18:00N 47°33' W 122°20'0 0.5
2017-May-22 17:30N 47°33' W 122°20'0 0.0
2017-May-22 17:00N 47°33' W 122°20'0 0.1
2017-May-22 16:30N 47°33' W 122°20'1 1.7
2017-May-22 16:00N 47°33' W 122°21'2 3.8
2017-May-22 15:30N 47°35' W 122°21'2 4.0
2017-May-22 15:00N 47°33' W 122°21'1 0.6
2017-May-22 13:59N 47°33' W 122°20'2 3.2
2017-May-22 13:30N 47°34' W 122°21'0 0.4
2017-May-22 13:00N 47°34' W 122°21'0 0.8
2017-May-22 12:30N 47°34' W 122°21'0 0.0
2017-May-22 03:55N 47°34' W 122°21'1 2.4
2017-May-22 03:30N 47°35' W 122°21'1 0.2
2017-May-21 19:22N 47°34' W 122°21'1 2.6
2017-May-21 19:00N 47°35' W 122°22'1 1.7
2017-May-21 18:30N 47°36' W 122°22'0 0.4
2017-May-21 18:00N 47°36' W 122°22'0 0.3
2017-May-21 17:30N 47°35' W 122°22'0 0.0
2017-May-21 17:00N 47°35' W 122°22'0 0.0
2017-May-21 16:30N 47°35' W 122°22'2 3.1
2017-May-21 16:00N 47°34' W 122°21'2 3.2
2017-May-21 15:30N 47°35' W 122°22'1 1.4
2017-May-21 15:00N 47°36' W 122°23'1 1.4
2017-May-21 14:00N 47°35' W 122°22'1 0.1
2017-May-21 00:20N 47°34' W 122°21'2 4.6
2017-May-21 00:00N 47°35' W 122°22'5 9.4
2017-May-20 23:30N 47°39' W 122°27'2 4.9
2017-May-20 23:00N 47°37' W 122°24'1 2.5
2017-May-20 22:30N 47°37' W 122°22'3 0.2
2017-May-20 05:38N 47°34' W 122°21'1 6.3
2017-May-20 05:30N 47°35' W 122°22'3 6.1
2017-May-20 05:01N 47°38' W 122°23'0 0.5
2017-May-20 04:31N 47°38' W 122°23'5 9.2
2017-May-20 04:01N 47°33' W 122°21'1 1.7
2017-May-20 03:31N 47°34' W 122°21'0 0.1
2017-May-20 03:00N 47°34' W 122°21'1 3.0
2017-May-20 02:31N 47°33' W 122°20'0 0.0
2017-May-20 02:01N 47°33' W 122°20'0 0.0
2017-May-20 01:31N 47°33' W 122°20'0 0.0
2017-May-20 01:01N 47°33' W 122°20'0 0.0
2017-May-20 00:31N 47°33' W 122°20'0 0.0
2017-May-20 00:01N 47°33' W 122°20'1 2.7
2017-May-19 23:31N 47°34' W 122°21'0 0.0
2017-May-19 23:01N 47°34' W 122°21'0 0.0
2017-May-19 22:31N 47°34' W 122°21'0 0.0
2017-May-19 22:00N 47°34' W 122°21'0 0.0
2017-May-19 21:31N 47°34' W 122°21'0 0.0
2017-May-19 21:00N 47°34' W 122°21'0 0.0
2017-May-19 20:31N 47°34' W 122°21'0 0.0
2017-May-19 20:01N 47°34' W 122°21'1 2.8
2017-May-19 19:30N 47°33' W 122°20'2 4.6
2017-May-19 19:01N 47°35' W 122°22'1 1.2
2017-May-19 18:31N 47°34' W 122°21'0 0.8
2017-May-19 18:01N 47°34' W 122°21'1 2.0
2017-May-19 17:31N 47°35' W 122°22'0 1.0
2017-May-19 17:00N 47°35' W 122°21'0 0.0
2017-May-19 16:30N 47°35' W 122°21'0 0.2
2017-May-19 16:00N 47°35' W 122°21'1 2.4
2017-May-19 15:31N 47°34' W 122°21'0 0.6
2017-May-19 15:01N 47°34' W 122°21'0 0.1
2017-May-19 14:01N 47°34' W 122°21'0 0.0
2017-May-19 13:31N 47°34' W 122°21'0 0.0
2017-May-18 22:05N 47°34' W 122°21'0 5.1
2017-May-18 22:01N 47°34' W 122°21'1 1.5
2017-May-18 21:30N 47°33' W 122°20'0 0.4
2017-May-18 21:01N 47°33' W 122°20'1 1.1
2017-May-18 20:30N 47°32' W 122°20'0 0.8
2017-May-18 20:00N 47°33' W 122°20'0 0.0
2017-May-18 19:30N 47°33' W 122°20'1 1.4
2017-May-18 19:01N 47°33' W 122°21'3 5.1
2017-May-18 18:31N 47°36' W 122°22'0 0.9
2017-May-18 18:01N 47°35' W 122°22'0 0.6
2017-May-18 17:31N 47°35' W 122°22'2 3.7
2017-May-18 17:00N 47°33' W 122°21'2 4.2
2017-May-18 16:31N 47°35' W 122°21'1 1.0
2017-May-18 16:01N 47°36' W 122°21'0 0.6
2017-May-18 15:31N 47°35' W 122°21'0 0.0
2017-May-18 15:01N 47°35' W 122°21'1 1.1
2017-May-18 14:01N 47°34' W 122°21'1 2.2
2017-May-18 13:31N 47°36' W 122°22'2 3.3
2017-May-18 13:01N 47°34' W 122°21'0 0.0
2017-May-18 04:11N 47°34' W 122°21'1 4.5
2017-May-18 04:00N 47°35' W 122°22'1 2.8
2017-May-18 03:31N 47°33' W 122°21'2 4.5
2017-May-18 03:01N 47°35' W 122°22'2 4.2
2017-May-18 02:30N 47°34' W 122°21'2 3.0
2017-May-18 02:00N 47°32' W 122°20'1 2.2
2017-May-18 01:30N 47°33' W 122°20'1 1.3
2017-May-18 01:00N 47°34' W 122°21'1 1.5
2017-May-18 00:31N 47°33' W 122°20'0 0.0
2017-May-18 00:01N 47°33' W 122°20'0 0.0
2017-May-17 23:30N 47°33' W 122°20'0 0.0
2017-May-17 23:01N 47°33' W 122°20'0 0.4
2017-May-17 22:30N 47°33' W 122°21'2 4.2
2017-May-17 22:01N 47°35' W 122°21'1 1.6
2017-May-17 21:30N 47°36' W 122°22'0 0.8
2017-May-17 21:00N 47°36' W 122°21'2 4.8
2017-May-17 20:30N 47°33' W 122°21'0 0.3
2017-May-17 20:00N 47°33' W 122°21'2 4.5
2017-May-17 19:31N 47°35' W 122°22'0 0.6
2017-May-17 19:01N 47°35' W 122°22'3 5.7
2017-May-17 18:30N 47°32' W 122°20'0 0.7
2017-May-17 18:01N 47°33' W 122°20'0 0.6
2017-May-17 17:30N 47°32' W 122°20'2 3.7
2017-May-17 17:01N 47°34' W 122°21'1 2.3
2017-May-17 16:30N 47°35' W 122°21'2 3.3
2017-May-17 16:00N 47°34' W 122°21'0 0.2
2017-May-17 15:30N 47°34' W 122°21'1 1.1
2017-May-17 15:00N 47°34' W 122°21'0 0.0
2017-May-17 14:31N 47°34' W 122°21'0 0.0
2017-May-17 13:31N 47°34' W 122°21'0 0.0
2017-May-17 13:01N 47°34' W 122°21'0 0.0
2017-May-17 12:31N 47°34' W 122°21'0 0.0
2017-May-17 12:00N 47°34' W 122°21'0 0.0
2017-May-17 11:30N 47°34' W 122°21'0 0.0
2017-May-17 11:01N 47°34' W 122°21'0 0.0
2017-May-17 10:30N 47°34' W 122°21'0 0.0
2017-May-17 10:00N 47°34' W 122°21'0 0.0
2017-May-17 09:30N 47°34' W 122°21'0 0.0
2017-May-17 09:00N 47°34' W 122°21'0 0.0
2017-May-17 08:30N 47°34' W 122°21'0 0.0
2017-May-17 08:01N 47°34' W 122°21'0 0.0
2017-May-17 07:31N 47°34' W 122°21'0 0.0
2017-May-17 07:00N 47°34' W 122°21'0 0.0
2017-May-17 06:31N 47°34' W 122°21'0 0.0
2017-May-17 06:00N 47°34' W 122°21'0 0.0
2017-May-17 05:30N 47°34' W 122°21'0 0.0
2017-May-17 05:00N 47°34' W 122°21'1 1.9
2017-May-17 04:30N 47°33' W 122°20'1 1.5
2017-May-17 04:01N 47°34' W 122°21'2 4.3
2017-May-17 03:30N 47°36' W 122°22'0 0.7
2017-May-17 03:01N 47°36' W 122°22'1 1.2
2017-May-17 02:30N 47°35' W 122°21'1 2.2
2017-May-17 02:01N 47°34' W 122°21'2 3.1
2017-May-17 01:30N 47°33' W 122°20'0 0.0
2017-May-17 01:00N 47°33' W 122°20'1 1.2
2017-May-17 00:30N 47°33' W 122°21'0 0.0
2017-May-17 00:00N 47°33' W 122°21'0 0.6
2017-May-16 23:30N 47°34' W 122°21'2 4.2
2017-May-16 23:00N 47°35' W 122°22'2 0.5
2017-May-16 19:47N 47°34' W 122°21'1 4.0
2017-May-16 19:30N 47°33' W 122°20'0 0.0
2017-May-16 18:59N 47°33' W 122°20'0 0.0
2017-May-16 18:30N 47°33' W 122°20'3 5.2
2017-May-16 18:00N 47°36' W 122°21'1 0.9
2017-May-16 17:27N 47°35' W 122°21'0 0.0
2017-May-16 17:01N 47°35' W 122°21'0 0.0
2017-May-16 16:31N 47°35' W 122°21'1 2.8
2017-May-16 16:00N 47°34' W 122°21'1 1.7
2017-May-16 15:30N 47°35' W 122°22'1 1.9
2017-May-16 15:01N 47°35' W 122°22'2 1.6
2017-May-16 14:01N 47°34' W 122°21'0 0.0
2017-May-16 13:30N 47°34' W 122°21'0 0.0
2017-May-16 13:01N 47°34' W 122°21'0 0.0
2017-May-15 19:12N 47°34' W 122°21'1 5.8
2017-May-15 19:00N 47°33' W 122°20'1 1.1
2017-May-15 18:30N 47°34' W 122°21'2 4.4
2017-May-15 18:01N 47°35' W 122°23'1 2.2
2017-May-15 17:31N 47°36' W 122°21'0 0.6
2017-May-15 17:00N 47°35' W 122°20'0 0.0
2017-May-15 16:30N 47°35' W 122°20'0 0.2
2017-May-15 16:00N 47°35' W 122°21'0 0.0
2017-May-15 15:30N 47°35' W 122°21'1 2.1
2017-May-15 15:00N 47°35' W 122°22'1 0.8
2017-May-15 14:00N 47°34' W 122°21'0 0.2
2017-May-15 13:30N 47°34' W 122°21'0 0.0
2017-May-15 13:00N 47°34' W 122°21'0 0.0
2017-May-14 20:10N 47°34' W 122°21'1 6.0
2017-May-14 20:01N 47°33' W 122°21'0 0.9
2017-May-14 19:31N 47°33' W 122°20'0 0.4
2017-May-14 19:01N 47°33' W 122°20'3 6.3
2017-May-14 18:31N 47°35' W 122°22'2 3.4
2017-May-14 18:01N 47°34' W 122°21'0 0.2
2017-May-14 17:31N 47°34' W 122°21'1 1.4
2017-May-14 17:01N 47°35' W 122°22'  
Track history (hours):
 
Tides and Currents Weather Stations Pressure Air Temp Water Temp Dewpoint Dewpoint Depression Visibility Wind Speed Wind Dir Waves Ship Positions

Westrac

Owner: WESTERN TOWBOAT CO, SEATTLE, WA. More information available from US FCC via Universal Licensing System and Coast Guard Vessel Documentation Center.

Last reported at 2017-May-23 17:00 UTC. Time now 2017-May-23 17:03 UTC.
Position N 47°38' W 122°23'.

Length 23 m; draft 5 m.

Type: Tug. MMSI: 366993010.

Date/timePositionNaut miles runAvg speedWind from/ knotsBaromVisibWave heightAir tempDewpointWater temp
2017-May-23 17:00N 47°38' W 122°23'3 5.4
2017-May-23 16:30N 47°35' W 122°21'0 0.6
2017-May-23 16:01N 47°36' W 122°21'1 2.6
2017-May-23 15:30N 47°34' W 122°21'1 1.7
2017-May-23 15:00N 47°33' W 122°21'1 1.3
2017-May-23 14:30N 47°34' W 122°21'0 0.0
2017-May-23 13:30N 47°34' W 122°21'0 0.0
2017-May-23 01:16N 47°34' W 122°21'1 4.8
2017-May-23 01:00N 47°33' W 122°20'1 2.9
2017-May-23 00:30N 47°34' W 122°21'1 2.2
2017-May-23 00:00N 47°35' W 122°21'0 0.6
2017-May-22 23:30N 47°35' W 122°21'1 2.2
2017-May-22 23:00N 47°34' W 122°21'0 0.0
2017-May-22 22:30N 47°34' W 122°21'0 0.0
2017-May-22 22:00N 47°34' W 122°21'0 0.0
2017-May-22 21:30N 47°34' W 122°21'0 0.0
2017-May-22 21:00N 47°34' W 122°21'0 0.0
2017-May-22 20:30N 47°34' W 122°21'2 3.1
2017-May-22 20:00N 47°35' W 122°22'1 2.7
2017-May-22 19:30N 47°34' W 122°21'2 3.1
2017-May-22 19:00N 47°33' W 122°20'0 0.0
2017-May-22 18:30N 47°33' W 122°20'0 0.2
2017-May-22 18:00N 47°33' W 122°20'0 0.5
2017-May-22 17:30N 47°33' W 122°20'0 0.0
2017-May-22 17:00N 47°33' W 122°20'0 0.1
2017-May-22 16:30N 47°33' W 122°20'1 1.7
2017-May-22 16:00N 47°33' W 122°21'2 3.8
2017-May-22 15:30N 47°35' W 122°21'2 4.0
2017-May-22 15:00N 47°33' W 122°21'1 0.6
2017-May-22 13:59N 47°33' W 122°20'2 3.2
2017-May-22 13:30N 47°34' W 122°21'0 0.4
2017-May-22 13:00N 47°34' W 122°21'0 0.8
2017-May-22 12:30N 47°34' W 122°21'0 0.0
2017-May-22 03:55N 47°34' W 122°21'1 2.4
2017-May-22 03:30N 47°35' W 122°21'1 0.2
2017-May-21 19:22N 47°34' W 122°21'1 2.6
2017-May-21 19:00N 47°35' W 122°22'1 1.7
2017-May-21 18:30N 47°36' W 122°22'0 0.4
2017-May-21 18:00N 47°36' W 122°22'0 0.3
2017-May-21 17:30N 47°35' W 122°22'0 0.0
2017-May-21 17:00N 47°35' W 122°22'0 0.0
2017-May-21 16:30N 47°35' W 122°22'2 3.1
2017-May-21 16:00N 47°34' W 122°21'2 3.2
2017-May-21 15:30N 47°35' W 122°22'1 1.4
2017-May-21 15:00N 47°36' W 122°23'1 1.4
2017-May-21 14:00N 47°35' W 122°22'1 0.1
2017-May-21 00:20N 47°34' W 122°21'2 4.6
2017-May-21 00:00N 47°35' W 122°22'5 9.4
2017-May-20 23:30N 47°39' W 122°27'2 4.9
2017-May-20 23:00N 47°37' W 122°24'1 2.5
2017-May-20 22:30N 47°37' W 122°22'3 0.2
2017-May-20 05:38N 47°34' W 122°21'1 6.3
2017-May-20 05:30N 47°35' W 122°22'3 6.1
2017-May-20 05:01N 47°38' W 122°23'0 0.5
2017-May-20 04:31N 47°38' W 122°23'5 9.2
2017-May-20 04:01N 47°33' W 122°21'1 1.7
2017-May-20 03:31N 47°34' W 122°21'0 0.1
2017-May-20 03:00N 47°34' W 122°21'1 3.0
2017-May-20 02:31N 47°33' W 122°20'0 0.0
2017-May-20 02:01N 47°33' W 122°20'0 0.0
2017-May-20 01:31N 47°33' W 122°20'0 0.0
2017-May-20 01:01N 47°33' W 122°20'0 0.0
2017-May-20 00:31N 47°33' W 122°20'0 0.0
2017-May-20 00:01N 47°33' W 122°20'1 2.7
2017-May-19 23:31N 47°34' W 122°21'0 0.0
2017-May-19 23:01N 47°34' W 122°21'0 0.0
2017-May-19 22:31N 47°34' W 122°21'0 0.0
2017-May-19 22:00N 47°34' W 122°21'0 0.0
2017-May-19 21:31N 47°34' W 122°21'0 0.0
2017-May-19 21:00N 47°34' W 122°21'0 0.0
2017-May-19 20:31N 47°34' W 122°21'0 0.0
2017-May-19 20:01N 47°34' W 122°21'1 2.8
2017-May-19 19:30N 47°33' W 122°20'2 4.6
2017-May-19 19:01N 47°35' W 122°22'1 1.2
2017-May-19 18:31N 47°34' W 122°21'0 0.8
2017-May-19 18:01N 47°34' W 122°21'1 2.0
2017-May-19 17:31N 47°35' W 122°22'0 1.0
2017-May-19 17:00N 47°35' W 122°21'0 0.0
2017-May-19 16:30N 47°35' W 122°21'0 0.2
2017-May-19 16:00N 47°35' W 122°21'1 2.4
2017-May-19 15:31N 47°34' W 122°21'0 0.6
2017-May-19 15:01N 47°34' W 122°21'0 0.1
2017-May-19 14:01N 47°34' W 122°21'0 0.0
2017-May-19 13:31N 47°34' W 122°21'0 0.0
2017-May-18 22:05N 47°34' W 122°21'0 5.1
2017-May-18 22:01N 47°34' W 122°21'1 1.5
2017-May-18 21:30N 47°33' W 122°20'0 0.4
2017-May-18 21:01N 47°33' W 122°20'1 1.1
2017-May-18 20:30N 47°32' W 122°20'0 0.8
2017-May-18 20:00N 47°33' W 122°20'0 0.0
2017-May-18 19:30N 47°33' W 122°20'1 1.4
2017-May-18 19:01N 47°33' W 122°21'3 5.1
2017-May-18 18:31N 47°36' W 122°22'0 0.9
2017-May-18 18:01N 47°35' W 122°22'0 0.6
2017-May-18 17:31N 47°35' W 122°22'2 3.7
2017-May-18 17:00N 47°33' W 122°21'2 4.2
2017-May-18 16:31N 47°35' W 122°21'1 1.0
2017-May-18 16:01N 47°36' W 122°21'0 0.6
2017-May-18 15:31N 47°35' W 122°21'0 0.0
2017-May-18 15:01N 47°35' W 122°21'1 1.1
2017-May-18 14:01N 47°34' W 122°21'1 2.2
2017-May-18 13:31N 47°36' W 122°22'2 3.3
2017-May-18 13:01N 47°34' W 122°21'0 0.0
2017-May-18 04:11N 47°34' W 122°21'1 4.5
2017-May-18 04:00N 47°35' W 122°22'1 2.8
2017-May-18 03:31N 47°33' W 122°21'2 4.5
2017-May-18 03:01N 47°35' W 122°22'2 4.2
2017-May-18 02:30N 47°34' W 122°21'2 3.0
2017-May-18 02:00N 47°32' W 122°20'1 2.2
2017-May-18 01:30N 47°33' W 122°20'1 1.3
2017-May-18 01:00N 47°34' W 122°21'1 1.5
2017-May-18 00:31N 47°33' W 122°20'0 0.0
2017-May-18 00:01N 47°33' W 122°20'0 0.0
2017-May-17 23:30N 47°33' W 122°20'0 0.0
2017-May-17 23:01N 47°33' W 122°20'0 0.4
2017-May-17 22:30N 47°33' W 122°21'2 4.2
2017-May-17 22:01N 47°35' W 122°21'1 1.6
2017-May-17 21:30N 47°36' W 122°22'0 0.8
2017-May-17 21:00N 47°36' W 122°21'2 4.8
2017-May-17 20:30N 47°33' W 122°21'0 0.3
2017-May-17 20:00N 47°33' W 122°21'2 4.5
2017-May-17 19:31N 47°35' W 122°22'0 0.6
2017-May-17 19:01N 47°35' W 122°22'3 5.7
2017-May-17 18:30N 47°32' W 122°20'0 0.7
2017-May-17 18:01N 47°33' W 122°20'0 0.6
2017-May-17 17:30N 47°32' W 122°20'2 3.7
2017-May-17 17:01N 47°34' W 122°21'1 2.3
2017-May-17 16:30N 47°35' W 122°21'2 3.3
2017-May-17 16:00N 47°34' W 122°21'0 0.2
2017-May-17 15:30N 47°34' W 122°21'1 1.1
2017-May-17 15:00N 47°34' W 122°21'0 0.0
2017-May-17 14:31N 47°34' W 122°21'0 0.0
2017-May-17 13:31N 47°34' W 122°21'0 0.0
2017-May-17 13:01N 47°34' W 122°21'0 0.0
2017-May-17 12:31N 47°34' W 122°21'0 0.0
2017-May-17 12:00N 47°34' W 122°21'0 0.0
2017-May-17 11:30N 47°34' W 122°21'0 0.0
2017-May-17 11:01N 47°34' W 122°21'0 0.0
2017-May-17 10:30N 47°34' W 122°21'0 0.0
2017-May-17 10:00N 47°34' W 122°21'0 0.0
2017-May-17 09:30N 47°34' W 122°21'0 0.0
2017-May-17 09:00N 47°34' W 122°21'0 0.0
2017-May-17 08:30N 47°34' W 122°21'0 0.0
2017-May-17 08:01N 47°34' W 122°21'0 0.0
2017-May-17 07:31N 47°34' W 122°21'0 0.0
2017-May-17 07:00N 47°34' W 122°21'0 0.0
2017-May-17 06:31N 47°34' W 122°21'0 0.0
2017-May-17 06:00N 47°34' W 122°21'0 0.0
2017-May-17 05:30N 47°34' W 122°21'0 0.0
2017-May-17 05:00N 47°34' W 122°21'1 1.9
2017-May-17 04:30N 47°33' W 122°20'1 1.5
2017-May-17 04:01N 47°34' W 122°21'2 4.3
2017-May-17 03:30N 47°36' W 122°22'0 0.7
2017-May-17 03:01N 47°36' W 122°22'1 1.2
2017-May-17 02:30N 47°35' W 122°21'1 2.2
2017-May-17 02:01N 47°34' W 122°21'2 3.1
2017-May-17 01:30N 47°33' W 122°20'0 0.0
2017-May-17 01:00N 47°33' W 122°20'1 1.2
2017-May-17 00:30N 47°33' W 122°21'0 0.0
2017-May-17 00:00N 47°33' W 122°21'0 0.6
2017-May-16 23:30N 47°34' W 122°21'2 4.2
2017-May-16 23:00N 47°35' W 122°22'2 0.5
2017-May-16 19:47N 47°34' W 122°21'1 4.0
2017-May-16 19:30N 47°33' W 122°20'0 0.0
2017-May-16 18:59N 47°33' W 122°20'0 0.0
2017-May-16 18:30N 47°33' W 122°20'3 5.2
2017-May-16 18:00N 47°36' W 122°21'1 0.9
2017-May-16 17:27N 47°35' W 122°21'0 0.0
2017-May-16 17:01N 47°35' W 122°21'0 0.0
2017-May-16 16:31N 47°35' W 122°21'1 2.8
2017-May-16 16:00N 47°34' W 122°21'1 1.7
2017-May-16 15:30N 47°35' W 122°22'1 1.9
2017-May-16 15:01N 47°35' W 122°22'2 1.6
2017-May-16 14:01N 47°34' W 122°21'0 0.0
2017-May-16 13:30N 47°34' W 122°21'0 0.0
2017-May-16 13:01N 47°34' W 122°21'0 0.0
2017-May-15 19:12N 47°34' W 122°21'1 5.8
2017-May-15 19:00N 47°33' W 122°20'1 1.1
2017-May-15 18:30N 47°34' W 122°21'2 4.4
2017-May-15 18:01N 47°35' W 122°23'1 2.2
2017-May-15 17:31N 47°36' W 122°21'0 0.6
2017-May-15 17:00N 47°35' W 122°20'0 0.0
2017-May-15 16:30N 47°35' W 122°20'0 0.2
2017-May-15 16:00N 47°35' W 122°21'0 0.0
2017-May-15 15:30N 47°35' W 122°21'1 2.1
2017-May-15 15:00N 47°35' W 122°22'1 0.8
2017-May-15 14:00N 47°34' W 122°21'0 0.2
2017-May-15 13:30N 47°34' W 122°21'0 0.0
2017-May-15 13:00N 47°34' W 122°21'0 0.0
2017-May-14 20:10N 47°34' W 122°21'1 6.0
2017-May-14 20:01N 47°33' W 122°21'0 0.9
2017-May-14 19:31N 47°33' W 122°20'0 0.4
2017-May-14 19:01N 47°33' W 122°20'3 6.3
2017-May-14 18:31N 47°35' W 122°22'2 3.4
2017-May-14 18:01N 47°34' W 122°21'0 0.2
2017-May-14 17:31N 47°34' W 122°21'1 1.4
2017-May-14 17:01N 47°35' W 122°22'  

Dump ship's entire track history